sensor_id;sensor_type;location;lat;lon;timestamp;P1;durP1;ratioP1;P2;durP2;ratioP2
47589;SDS011;33316;52.298;9.056;2023-06-26T00:00:48;2.72;;;2.45;;
47589;SDS011;33316;52.298;9.056;2023-06-26T00:03:15;2.53;;;2.33;;
47589;SDS011;33316;52.298;9.056;2023-06-26T00:05:42;2.90;;;2.38;;
47589;SDS011;33316;52.298;9.056;2023-06-26T00:08:09;4.32;;;2.65;;
47589;SDS011;33316;52.298;9.056;2023-06-26T00:10:35;3.75;;;2.92;;
47589;SDS011;33316;52.298;9.056;2023-06-26T00:13:03;3.92;;;2.80;;
47589;SDS011;33316;52.298;9.056;2023-06-26T00:15:30;3.05;;;2.75;;
47589;SDS011;33316;52.298;9.056;2023-06-26T00:17:57;3.30;;;2.70;;
47589;SDS011;33316;52.298;9.056;2023-06-26T00:20:24;2.65;;;2.38;;
47589;SDS011;33316;52.298;9.056;2023-06-26T00:22:51;3.80;;;2.63;;
47589;SDS011;33316;52.298;9.056;2023-06-26T00:25:18;3.60;;;2.78;;
47589;SDS011;33316;52.298;9.056;2023-06-26T00:27:45;3.60;;;2.90;;
47589;SDS011;33316;52.298;9.056;2023-06-26T00:30:13;3.67;;;2.65;;
47589;SDS011;33316;52.298;9.056;2023-06-26T00:32:40;3.30;;;2.92;;
47589;SDS011;33316;52.298;9.056;2023-06-26T00:35:07;3.13;;;2.50;;
47589;SDS011;33316;52.298;9.056;2023-06-26T00:37:34;3.03;;;2.55;;
47589;SDS011;33316;52.298;9.056;2023-06-26T00:40:00;3.20;;;2.65;;
47589;SDS011;33316;52.298;9.056;2023-06-26T00:42:30;2.53;;;2.28;;
47589;SDS011;33316;52.298;9.056;2023-06-26T00:44:56;4.00;;;2.50;;
47589;SDS011;33316;52.298;9.056;2023-06-26T00:47:25;3.13;;;2.42;;
47589;SDS011;33316;52.298;9.056;2023-06-26T00:49:52;3.15;;;2.67;;
47589;SDS011;33316;52.298;9.056;2023-06-26T00:52:20;2.85;;;2.42;;
47589;SDS011;33316;52.298;9.056;2023-06-26T00:54:48;3.35;;;2.63;;
47589;SDS011;33316;52.298;9.056;2023-06-26T00:57:16;2.83;;;2.40;;
47589;SDS011;33316;52.298;9.056;2023-06-26T00:59:43;4.15;;;2.58;;
47589;SDS011;33316;52.298;9.056;2023-06-26T01:02:09;4.72;;;2.65;;
47589;SDS011;33316;52.298;9.056;2023-06-26T01:04:38;3.20;;;2.42;;
47589;SDS011;33316;52.298;9.056;2023-06-26T01:07:12;2.97;;;2.58;;
47589;SDS011;33316;52.298;9.056;2023-06-26T01:09:40;3.50;;;3.05;;
47589;SDS011;33316;52.298;9.056;2023-06-26T01:12:07;3.38;;;2.63;;
47589;SDS011;33316;52.298;9.056;2023-06-26T01:14:34;3.20;;;2.90;;
47589;SDS011;33316;52.298;9.056;2023-06-26T01:17:01;3.30;;;2.60;;
47589;SDS011;33316;52.298;9.056;2023-06-26T01:19:29;3.60;;;2.35;;
47589;SDS011;33316;52.298;9.056;2023-06-26T01:22:09;3.20;;;2.90;;
47589;SDS011;33316;52.298;9.056;2023-06-26T01:24:45;4.88;;;3.17;;
47589;SDS011;33316;52.298;9.056;2023-06-26T01:27:21;3.42;;;2.88;;
47589;SDS011;33316;52.298;9.056;2023-06-26T01:29:48;3.40;;;2.63;;
47589;SDS011;33316;52.298;9.056;2023-06-26T01:32:17;3.95;;;2.65;;
47589;SDS011;33316;52.298;9.056;2023-06-26T01:34:44;3.47;;;2.80;;
47589;SDS011;33316;52.298;9.056;2023-06-26T01:37:11;3.83;;;2.58;;
47589;SDS011;33316;52.298;9.056;2023-06-26T01:39:38;3.13;;;2.65;;
47589;SDS011;33316;52.298;9.056;2023-06-26T01:42:05;3.45;;;2.67;;
47589;SDS011;33316;52.298;9.056;2023-06-26T01:44:35;3.03;;;2.63;;
47589;SDS011;33316;52.298;9.056;2023-06-26T01:47:04;2.55;;;2.33;;
47589;SDS011;33316;52.298;9.056;2023-06-26T01:49:40;3.15;;;2.50;;
47589;SDS011;33316;52.298;9.056;2023-06-26T01:52:14;3.88;;;2.28;;
47589;SDS011;33316;52.298;9.056;2023-06-26T01:54:47;2.55;;;2.28;;
47589;SDS011;33316;52.298;9.056;2023-06-26T01:57:20;3.42;;;2.67;;
47589;SDS011;33316;52.298;9.056;2023-06-26T01:59:50;3.25;;;2.83;;
47589;SDS011;33316;52.298;9.056;2023-06-26T02:02:17;3.90;;;2.47;;
47589;SDS011;33316;52.298;9.056;2023-06-26T02:04:44;4.07;;;2.72;;
47589;SDS011;33316;52.298;9.056;2023-06-26T02:07:13;3.72;;;2.58;;
47589;SDS011;33316;52.298;9.056;2023-06-26T02:09:39;3.25;;;2.40;;
47589;SDS011;33316;52.298;9.056;2023-06-26T02:12:07;3.30;;;2.60;;
47589;SDS011;33316;52.298;9.056;2023-06-26T02:14:34;4.80;;;2.70;;
47589;SDS011;33316;52.298;9.056;2023-06-26T02:17:01;4.07;;;2.55;;
47589;SDS011;33316;52.298;9.056;2023-06-26T02:19:28;3.58;;;2.30;;
47589;SDS011;33316;52.298;9.056;2023-06-26T02:21:55;3.47;;;2.60;;
47589;SDS011;33316;52.298;9.056;2023-06-26T02:24:22;3.30;;;2.90;;
47589;SDS011;33316;52.298;9.056;2023-06-26T02:26:48;3.70;;;3.17;;
47589;SDS011;33316;52.298;9.056;2023-06-26T02:29:15;3.92;;;3.00;;
47589;SDS011;33316;52.298;9.056;2023-06-26T02:31:42;3.60;;;2.67;;
47589;SDS011;33316;52.298;9.056;2023-06-26T02:34:10;2.70;;;2.00;;
47589;SDS011;33316;52.298;9.056;2023-06-26T02:36:37;2.95;;;2.60;;
47589;SDS011;33316;52.298;9.056;2023-06-26T02:39:04;3.38;;;2.97;;
47589;SDS011;33316;52.298;9.056;2023-06-26T02:41:31;3.85;;;2.92;;
47589;SDS011;33316;52.298;9.056;2023-06-26T02:43:57;3.95;;;2.80;;
47589;SDS011;33316;52.298;9.056;2023-06-26T02:46:24;3.95;;;3.08;;
47589;SDS011;33316;52.298;9.056;2023-06-26T02:48:51;4.03;;;2.90;;
47589;SDS011;33316;52.298;9.056;2023-06-26T02:51:19;2.67;;;2.45;;
47589;SDS011;33316;52.298;9.056;2023-06-26T02:53:45;3.60;;;2.65;;
47589;SDS011;33316;52.298;9.056;2023-06-26T02:56:12;4.00;;;2.63;;
47589;SDS011;33316;52.298;9.056;2023-06-26T02:58:39;4.40;;;2.80;;
47589;SDS011;33316;52.298;9.056;2023-06-26T03:01:05;2.90;;;2.42;;
47589;SDS011;33316;52.298;9.056;2023-06-26T03:03:32;4.07;;;2.53;;
47589;SDS011;33316;52.298;9.056;2023-06-26T03:06:05;2.90;;;2.50;;
47589;SDS011;33316;52.298;9.056;2023-06-26T03:08:35;3.03;;;2.72;;
47589;SDS011;33316;52.298;9.056;2023-06-26T03:11:03;2.83;;;2.58;;
47589;SDS011;33316;52.298;9.056;2023-06-26T03:13:29;3.38;;;2.45;;
47589;SDS011;33316;52.298;9.056;2023-06-26T03:15:56;3.60;;;2.85;;
47589;SDS011;33316;52.298;9.056;2023-06-26T03:18:23;3.30;;;2.83;;
47589;SDS011;33316;52.298;9.056;2023-06-26T03:20:49;2.75;;;2.40;;
47589;SDS011;33316;52.298;9.056;2023-06-26T03:23:16;3.38;;;2.67;;
47589;SDS011;33316;52.298;9.056;2023-06-26T03:25:44;3.50;;;2.63;;
47589;SDS011;33316;52.298;9.056;2023-06-26T03:28:12;2.15;;;1.90;;
47589;SDS011;33316;52.298;9.056;2023-06-26T03:30:39;3.40;;;2.65;;
47589;SDS011;33316;52.298;9.056;2023-06-26T03:33:05;2.78;;;2.55;;
47589;SDS011;33316;52.298;9.056;2023-06-26T03:35:32;3.45;;;2.55;;
47589;SDS011;33316;52.298;9.056;2023-06-26T03:37:59;2.97;;;2.42;;
47589;SDS011;33316;52.298;9.056;2023-06-26T03:40:27;2.85;;;2.38;;
47589;SDS011;33316;52.298;9.056;2023-06-26T03:42:55;3.92;;;3.00;;
47589;SDS011;33316;52.298;9.056;2023-06-26T03:45:21;5.60;;;2.88;;
47589;SDS011;33316;52.298;9.056;2023-06-26T03:47:48;2.90;;;2.58;;
47589;SDS011;33316;52.298;9.056;2023-06-26T03:50:15;2.85;;;2.45;;
47589;SDS011;33316;52.298;9.056;2023-06-26T03:52:42;4.07;;;3.35;;
47589;SDS011;33316;52.298;9.056;2023-06-26T03:55:08;3.10;;;2.47;;
47589;SDS011;33316;52.298;9.056;2023-06-26T03:57:35;4.72;;;2.88;;
47589;SDS011;33316;52.298;9.056;2023-06-26T04:00:03;6.57;;;2.95;;
47589;SDS011;33316;52.298;9.056;2023-06-26T04:02:33;3.58;;;2.45;;
47589;SDS011;33316;52.298;9.056;2023-06-26T04:05:00;3.72;;;2.45;;
47589;SDS011;33316;52.298;9.056;2023-06-26T04:07:28;4.13;;;2.72;;
47589;SDS011;33316;52.298;9.056;2023-06-26T04:09:56;3.53;;;3.08;;
47589;SDS011;33316;52.298;9.056;2023-06-26T04:12:22;3.13;;;2.72;;
47589;SDS011;33316;52.298;9.056;2023-06-26T04:14:49;3.47;;;2.80;;
47589;SDS011;33316;52.298;9.056;2023-06-26T04:17:17;4.15;;;2.28;;
47589;SDS011;33316;52.298;9.056;2023-06-26T04:19:44;3.08;;;2.22;;
47589;SDS011;33316;52.298;9.056;2023-06-26T04:22:11;2.17;;;1.95;;
47589;SDS011;33316;52.298;9.056;2023-06-26T04:24:38;3.00;;;2.70;;
47589;SDS011;33316;52.298;9.056;2023-06-26T04:27:05;4.25;;;3.13;;
47589;SDS011;33316;52.298;9.056;2023-06-26T04:29:31;3.85;;;2.90;;
47589;SDS011;33316;52.298;9.056;2023-06-26T04:31:58;4.35;;;2.90;;
47589;SDS011;33316;52.298;9.056;2023-06-26T04:34:26;3.13;;;2.38;;
47589;SDS011;33316;52.298;9.056;2023-06-26T04:36:53;4.15;;;3.00;;
47589;SDS011;33316;52.298;9.056;2023-06-26T04:39:20;4.78;;;3.10;;
47589;SDS011;33316;52.298;9.056;2023-06-26T04:41:47;3.85;;;2.88;;
47589;SDS011;33316;52.298;9.056;2023-06-26T04:44:14;6.95;;;3.10;;
47589;SDS011;33316;52.298;9.056;2023-06-26T04:46:40;3.03;;;2.65;;
47589;SDS011;33316;52.298;9.056;2023-06-26T04:49:07;3.70;;;2.97;;
47589;SDS011;33316;52.298;9.056;2023-06-26T04:51:35;4.88;;;2.90;;
47589;SDS011;33316;52.298;9.056;2023-06-26T04:54:05;4.63;;;3.40;;
47589;SDS011;33316;52.298;9.056;2023-06-26T04:56:32;4.20;;;3.20;;
47589;SDS011;33316;52.298;9.056;2023-06-26T04:59:00;5.05;;;3.10;;
47589;SDS011;33316;52.298;9.056;2023-06-26T05:01:26;3.97;;;2.80;;
47589;SDS011;33316;52.298;9.056;2023-06-26T05:03:54;8.52;;;3.30;;
47589;SDS011;33316;52.298;9.056;2023-06-26T05:06:21;4.03;;;3.10;;
47589;SDS011;33316;52.298;9.056;2023-06-26T05:08:49;4.38;;;3.10;;
47589;SDS011;33316;52.298;9.056;2023-06-26T05:11:16;3.90;;;3.30;;
47589;SDS011;33316;52.298;9.056;2023-06-26T05:13:42;3.95;;;3.00;;
47589;SDS011;33316;52.298;9.056;2023-06-26T05:16:09;3.10;;;2.70;;
47589;SDS011;33316;52.298;9.056;2023-06-26T05:18:36;3.42;;;2.47;;
47589;SDS011;33316;52.298;9.056;2023-06-26T05:21:03;4.03;;;3.03;;
47589;SDS011;33316;52.298;9.056;2023-06-26T05:23:31;3.53;;;2.50;;
47589;SDS011;33316;52.298;9.056;2023-06-26T05:26:00;4.53;;;2.80;;
47589;SDS011;33316;52.298;9.056;2023-06-26T05:28:28;3.75;;;3.15;;
47589;SDS011;33316;52.298;9.056;2023-06-26T05:30:56;2.80;;;2.53;;
47589;SDS011;33316;52.298;9.056;2023-06-26T05:33:24;3.75;;;2.50;;
47589;SDS011;33316;52.298;9.056;2023-06-26T05:35:52;3.28;;;2.67;;
47589;SDS011;33316;52.298;9.056;2023-06-26T05:38:19;3.13;;;2.60;;
47589;SDS011;33316;52.298;9.056;2023-06-26T05:40:46;4.32;;;2.67;;
47589;SDS011;33316;52.298;9.056;2023-06-26T05:43:15;3.63;;;2.85;;
47589;SDS011;33316;52.298;9.056;2023-06-26T05:45:45;4.47;;;2.83;;
47589;SDS011;33316;52.298;9.056;2023-06-26T05:48:12;4.45;;;2.80;;
47589;SDS011;33316;52.298;9.056;2023-06-26T05:50:39;4.03;;;3.17;;
47589;SDS011;33316;52.298;9.056;2023-06-26T05:53:07;4.60;;;2.97;;
47589;SDS011;33316;52.298;9.056;2023-06-26T05:55:34;4.35;;;2.85;;
47589;SDS011;33316;52.298;9.056;2023-06-26T05:58:02;5.75;;;2.78;;
47589;SDS011;33316;52.298;9.056;2023-06-26T06:00:31;4.03;;;3.08;;
47589;SDS011;33316;52.298;9.056;2023-06-26T06:02:58;3.88;;;2.95;;
47589;SDS011;33316;52.298;9.056;2023-06-26T06:05:24;2.78;;;2.53;;
47589;SDS011;33316;52.298;9.056;2023-06-26T06:07:51;4.47;;;2.85;;
47589;SDS011;33316;52.298;9.056;2023-06-26T06:10:18;3.28;;;2.65;;
47589;SDS011;33316;52.298;9.056;2023-06-26T06:12:44;3.22;;;2.78;;
47589;SDS011;33316;52.298;9.056;2023-06-26T06:15:11;3.55;;;2.90;;
47589;SDS011;33316;52.298;9.056;2023-06-26T06:17:39;2.42;;;2.22;;
47589;SDS011;33316;52.298;9.056;2023-06-26T06:20:06;3.70;;;2.90;;
47589;SDS011;33316;52.298;9.056;2023-06-26T06:22:33;3.28;;;2.83;;
47589;SDS011;33316;52.298;9.056;2023-06-26T06:24:59;4.18;;;3.05;;
47589;SDS011;33316;52.298;9.056;2023-06-26T06:27:26;3.83;;;2.63;;
47589;SDS011;33316;52.298;9.056;2023-06-26T06:29:53;3.20;;;2.72;;
47589;SDS011;33316;52.298;9.056;2023-06-26T06:32:20;3.83;;;2.35;;
47589;SDS011;33316;52.298;9.056;2023-06-26T06:34:48;3.38;;;2.92;;
47589;SDS011;33316;52.298;9.056;2023-06-26T06:37:14;3.70;;;3.08;;
47589;SDS011;33316;52.298;9.056;2023-06-26T06:39:41;3.95;;;3.00;;
47589;SDS011;33316;52.298;9.056;2023-06-26T06:42:08;3.45;;;2.65;;
47589;SDS011;33316;52.298;9.056;2023-06-26T06:44:34;3.25;;;2.60;;
47589;SDS011;33316;52.298;9.056;2023-06-26T06:47:01;3.42;;;2.60;;
47589;SDS011;33316;52.298;9.056;2023-06-26T06:49:28;5.03;;;3.10;;
47589;SDS011;33316;52.298;9.056;2023-06-26T06:51:56;5.07;;;3.13;;
47589;SDS011;33316;52.298;9.056;2023-06-26T06:54:25;4.50;;;3.00;;
47589;SDS011;33316;52.298;9.056;2023-06-26T06:56:52;4.00;;;2.85;;
47589;SDS011;33316;52.298;9.056;2023-06-26T06:59:19;3.30;;;2.72;;
47589;SDS011;33316;52.298;9.056;2023-06-26T07:01:45;4.07;;;3.50;;
47589;SDS011;33316;52.298;9.056;2023-06-26T07:04:12;3.88;;;2.72;;
47589;SDS011;33316;52.298;9.056;2023-06-26T07:06:39;3.55;;;2.70;;
47589;SDS011;33316;52.298;9.056;2023-06-26T07:09:07;3.45;;;2.63;;
47589;SDS011;33316;52.298;9.056;2023-06-26T07:11:33;4.57;;;3.42;;
47589;SDS011;33316;52.298;9.056;2023-06-26T07:14:00;5.40;;;3.75;;
47589;SDS011;33316;52.298;9.056;2023-06-26T07:16:26;4.82;;;3.35;;
47589;SDS011;33316;52.298;9.056;2023-06-26T07:18:53;3.50;;;3.05;;
47589;SDS011;33316;52.298;9.056;2023-06-26T07:21:20;5.43;;;3.65;;
47589;SDS011;33316;52.298;9.056;2023-06-26T07:23:47;3.97;;;3.15;;
47589;SDS011;33316;52.298;9.056;2023-06-26T07:26:15;4.43;;;3.60;;
47589;SDS011;33316;52.298;9.056;2023-06-26T07:28:44;5.05;;;3.25;;
47589;SDS011;33316;52.298;9.056;2023-06-26T07:31:14;3.05;;;2.75;;
47589;SDS011;33316;52.298;9.056;2023-06-26T07:33:41;3.75;;;3.35;;
47589;SDS011;33316;52.298;9.056;2023-06-26T07:36:08;3.45;;;2.95;;
47589;SDS011;33316;52.298;9.056;2023-06-26T07:38:35;3.75;;;3.38;;
47589;SDS011;33316;52.298;9.056;2023-06-26T07:41:02;4.18;;;3.10;;
47589;SDS011;33316;52.298;9.056;2023-06-26T07:43:30;4.30;;;3.47;;
47589;SDS011;33316;52.298;9.056;2023-06-26T07:45:57;5.93;;;3.67;;
47589;SDS011;33316;52.298;9.056;2023-06-26T07:48:24;4.75;;;3.00;;
47589;SDS011;33316;52.298;9.056;2023-06-26T07:50:51;3.63;;;3.00;;
47589;SDS011;33316;52.298;9.056;2023-06-26T07:53:18;8.50;;;3.45;;
47589;SDS011;33316;52.298;9.056;2023-06-26T07:55:45;3.80;;;3.13;;
47589;SDS011;33316;52.298;9.056;2023-06-26T07:58:11;5.20;;;3.53;;
47589;SDS011;33316;52.298;9.056;2023-06-26T08:00:39;3.97;;;2.97;;
47589;SDS011;33316;52.298;9.056;2023-06-26T08:03:06;4.80;;;3.72;;
47589;SDS011;33316;52.298;9.056;2023-06-26T08:05:33;3.45;;;3.08;;
47589;SDS011;33316;52.298;9.056;2023-06-26T08:07:59;3.55;;;3.13;;
47589;SDS011;33316;52.298;9.056;2023-06-26T08:10:27;3.40;;;2.92;;
47589;SDS011;33316;52.298;9.056;2023-06-26T08:12:55;7.70;;;3.85;;
47589;SDS011;33316;52.298;9.056;2023-06-26T08:15:22;5.15;;;3.58;;
47589;SDS011;33316;52.298;9.056;2023-06-26T08:17:50;7.15;;;4.20;;
47589;SDS011;33316;52.298;9.056;2023-06-26T08:20:25;3.60;;;3.13;;
47589;SDS011;33316;52.298;9.056;2023-06-26T08:22:53;6.15;;;4.07;;
47589;SDS011;33316;52.298;9.056;2023-06-26T08:25:20;7.50;;;3.78;;
47589;SDS011;33316;52.298;9.056;2023-06-26T08:27:46;5.47;;;4.30;;
47589;SDS011;33316;52.298;9.056;2023-06-26T08:30:16;4.30;;;3.22;;
47589;SDS011;33316;52.298;9.056;2023-06-26T08:32:43;4.67;;;3.07;;
47589;SDS011;33316;52.298;9.056;2023-06-26T08:35:11;5.95;;;4.22;;
47589;SDS011;33316;52.298;9.056;2023-06-26T08:37:41;4.55;;;3.35;;
47589;SDS011;33316;52.298;9.056;2023-06-26T08:40:08;8.77;;;4.45;;
47589;SDS011;33316;52.298;9.056;2023-06-26T08:42:36;5.10;;;3.85;;
47589;SDS011;33316;52.298;9.056;2023-06-26T08:45:06;5.63;;;4.07;;
47589;SDS011;33316;52.298;9.056;2023-06-26T08:47:33;4.05;;;3.10;;
47589;SDS011;33316;52.298;9.056;2023-06-26T08:50:05;4.22;;;3.30;;
47589;SDS011;33316;52.298;9.056;2023-06-26T08:52:40;6.22;;;3.60;;
47589;SDS011;33316;52.298;9.056;2023-06-26T08:55:15;4.20;;;2.97;;
47589;SDS011;33316;52.298;9.056;2023-06-26T08:57:42;5.47;;;3.97;;
47589;SDS011;33316;52.298;9.056;2023-06-26T09:00:11;5.07;;;4.22;;
47589;SDS011;33316;52.298;9.056;2023-06-26T09:02:39;4.03;;;3.03;;
47589;SDS011;33316;52.298;9.056;2023-06-26T09:05:11;5.30;;;3.83;;
47589;SDS011;33316;52.298;9.056;2023-06-26T09:07:38;3.67;;;3.10;;
47589;SDS011;33316;52.298;9.056;2023-06-26T09:10:08;4.95;;;3.55;;
47589;SDS011;33316;52.298;9.056;2023-06-26T09:12:36;5.95;;;3.30;;
47589;SDS011;33316;52.298;9.056;2023-06-26T09:15:03;5.35;;;3.65;;
47589;SDS011;33316;52.298;9.056;2023-06-26T09:17:33;4.60;;;3.35;;
47589;SDS011;33316;52.298;9.056;2023-06-26T09:20:04;5.95;;;3.63;;
47589;SDS011;33316;52.298;9.056;2023-06-26T09:22:37;5.03;;;3.65;;
47589;SDS011;33316;52.298;9.056;2023-06-26T09:25:06;5.05;;;3.67;;
47589;SDS011;33316;52.298;9.056;2023-06-26T09:27:33;4.75;;;3.20;;
47589;SDS011;33316;52.298;9.056;2023-06-26T09:30:01;4.53;;;3.20;;
47589;SDS011;33316;52.298;9.056;2023-06-26T09:32:28;6.32;;;4.75;;
47589;SDS011;33316;52.298;9.056;2023-06-26T09:34:55;6.55;;;4.47;;
47589;SDS011;33316;52.298;9.056;2023-06-26T09:37:22;4.22;;;3.40;;
47589;SDS011;33316;52.298;9.056;2023-06-26T09:39:51;5.35;;;3.90;;
47589;SDS011;33316;52.298;9.056;2023-06-26T09:42:18;4.70;;;3.70;;
47589;SDS011;33316;52.298;9.056;2023-06-26T09:44:45;4.63;;;3.33;;
47589;SDS011;33316;52.298;9.056;2023-06-26T09:47:16;4.13;;;2.78;;
47589;SDS011;33316;52.298;9.056;2023-06-26T09:49:45;5.55;;;3.65;;
47589;SDS011;33316;52.298;9.056;2023-06-26T09:52:13;6.55;;;3.97;;
47589;SDS011;33316;52.298;9.056;2023-06-26T09:54:42;6.32;;;3.72;;
47589;SDS011;33316;52.298;9.056;2023-06-26T09:57:12;3.38;;;2.70;;
47589;SDS011;33316;52.298;9.056;2023-06-26T09:59:41;3.78;;;2.80;;
47589;SDS011;33316;52.298;9.056;2023-06-26T10:02:11;2.97;;;2.22;;
47589;SDS011;33316;52.298;9.056;2023-06-26T10:04:38;3.58;;;2.15;;
47589;SDS011;33316;52.298;9.056;2023-06-26T10:07:10;4.40;;;3.00;;
47589;SDS011;33316;52.298;9.056;2023-06-26T10:09:42;3.88;;;2.55;;
47589;SDS011;33316;52.298;9.056;2023-06-26T10:12:18;5.68;;;3.60;;
47589;SDS011;33316;52.298;9.056;2023-06-26T10:14:49;5.13;;;2.88;;
47589;SDS011;33316;52.298;9.056;2023-06-26T10:17:22;4.28;;;2.80;;
47589;SDS011;33316;52.298;9.056;2023-06-26T10:19:53;3.58;;;2.60;;
47589;SDS011;33316;52.298;9.056;2023-06-26T10:22:31;4.47;;;3.03;;
47589;SDS011;33316;52.298;9.056;2023-06-26T10:25:07;3.72;;;2.78;;
47589;SDS011;33316;52.298;9.056;2023-06-26T10:27:42;3.35;;;2.33;;
47589;SDS011;33316;52.298;9.056;2023-06-26T10:30:12;6.15;;;3.35;;
47589;SDS011;33316;52.298;9.056;2023-06-26T10:32:45;5.25;;;3.33;;
47589;SDS011;33316;52.298;9.056;2023-06-26T10:35:15;4.60;;;2.85;;
47589;SDS011;33316;52.298;9.056;2023-06-26T10:37:43;8.85;;;3.08;;
47589;SDS011;33316;52.298;9.056;2023-06-26T10:40:11;5.38;;;3.50;;
47589;SDS011;33316;52.298;9.056;2023-06-26T10:42:40;4.28;;;2.83;;
47589;SDS011;33316;52.298;9.056;2023-06-26T10:45:11;4.28;;;2.70;;
47589;SDS011;33316;52.298;9.056;2023-06-26T10:47:40;4.75;;;2.63;;
47589;SDS011;33316;52.298;9.056;2023-06-26T10:50:18;4.22;;;2.50;;
47589;SDS011;33316;52.298;9.056;2023-06-26T10:52:50;4.03;;;2.03;;
47589;SDS011;33316;52.298;9.056;2023-06-26T10:55:33;4.38;;;2.80;;
47589;SDS011;33316;52.298;9.056;2023-06-26T10:58:01;4.15;;;2.40;;
47589;SDS011;33316;52.298;9.056;2023-06-26T11:00:28;4.65;;;2.38;;
47589;SDS011;33316;52.298;9.056;2023-06-26T11:02:55;3.70;;;2.42;;
47589;SDS011;33316;52.298;9.056;2023-06-26T11:05:25;3.40;;;2.15;;
47589;SDS011;33316;52.298;9.056;2023-06-26T11:08:02;6.95;;;3.20;;
47589;SDS011;33316;52.298;9.056;2023-06-26T11:10:39;5.75;;;3.45;;
47589;SDS011;33316;52.298;9.056;2023-06-26T11:13:17;3.53;;;2.47;;
47589;SDS011;33316;52.298;9.056;2023-06-26T11:15:45;3.13;;;2.42;;
47589;SDS011;33316;52.298;9.056;2023-06-26T11:18:12;3.90;;;2.28;;
47589;SDS011;33316;52.298;9.056;2023-06-26T11:20:39;4.10;;;2.90;;
47589;SDS011;33316;52.298;9.056;2023-06-26T11:23:05;4.40;;;2.70;;
47589;SDS011;33316;52.298;9.056;2023-06-26T11:25:34;3.95;;;2.33;;
47589;SDS011;33316;52.298;9.056;2023-06-26T11:28:02;3.67;;;2.53;;
47589;SDS011;33316;52.298;9.056;2023-06-26T11:30:31;2.95;;;2.03;;
47589;SDS011;33316;52.298;9.056;2023-06-26T11:33:04;4.35;;;2.22;;
47589;SDS011;33316;52.298;9.056;2023-06-26T11:35:31;2.80;;;2.00;;
47589;SDS011;33316;52.298;9.056;2023-06-26T11:37:59;4.28;;;1.75;;
47589;SDS011;33316;52.298;9.056;2023-06-26T11:40:28;2.70;;;1.83;;
47589;SDS011;33316;52.298;9.056;2023-06-26T11:42:57;6.18;;;1.50;;
47589;SDS011;33316;52.298;9.056;2023-06-26T11:45:25;2.90;;;1.45;;
47589;SDS011;33316;52.298;9.056;2023-06-26T11:47:54;2.40;;;1.65;;
47589;SDS011;33316;52.298;9.056;2023-06-26T11:50:21;2.22;;;1.55;;
47589;SDS011;33316;52.298;9.056;2023-06-26T11:52:52;1.73;;;1.20;;
47589;SDS011;33316;52.298;9.056;2023-06-26T11:55:19;2.95;;;1.50;;
47589;SDS011;33316;52.298;9.056;2023-06-26T11:57:47;2.28;;;1.30;;
47589;SDS011;33316;52.298;9.056;2023-06-26T12:00:15;2.25;;;1.42;;
47589;SDS011;33316;52.298;9.056;2023-06-26T12:02:43;4.00;;;1.20;;
47589;SDS011;33316;52.298;9.056;2023-06-26T12:05:12;3.13;;;1.20;;
47589;SDS011;33316;52.298;9.056;2023-06-26T12:07:40;2.05;;;1.17;;
47589;SDS011;33316;52.298;9.056;2023-06-26T12:10:08;3.65;;;1.25;;
47589;SDS011;33316;52.298;9.056;2023-06-26T12:12:36;1.63;;;0.93;;
47589;SDS011;33316;52.298;9.056;2023-06-26T12:15:05;1.58;;;0.75;;
47589;SDS011;33316;52.298;9.056;2023-06-26T12:17:33;1.95;;;0.98;;
47589;SDS011;33316;52.298;9.056;2023-06-26T12:20:03;4.63;;;1.13;;
47589;SDS011;33316;52.298;9.056;2023-06-26T12:22:35;1.85;;;0.80;;
47589;SDS011;33316;52.298;9.056;2023-06-26T12:25:03;2.92;;;1.25;;
47589;SDS011;33316;52.298;9.056;2023-06-26T12:27:33;0.95;;;0.85;;
47589;SDS011;33316;52.298;9.056;2023-06-26T12:30:04;2.17;;;1.10;;
47589;SDS011;33316;52.298;9.056;2023-06-26T12:32:32;1.98;;;0.93;;
47589;SDS011;33316;52.298;9.056;2023-06-26T12:35:01;2.42;;;1.10;;
47589;SDS011;33316;52.298;9.056;2023-06-26T12:37:27;1.70;;;0.85;;
47589;SDS011;33316;52.298;9.056;2023-06-26T12:39:56;2.58;;;0.73;;
47589;SDS011;33316;52.298;9.056;2023-06-26T12:42:23;2.53;;;0.80;;
47589;SDS011;33316;52.298;9.056;2023-06-26T12:44:51;2.15;;;1.00;;
47589;SDS011;33316;52.298;9.056;2023-06-26T12:47:24;3.05;;;0.98;;
47589;SDS011;33316;52.298;9.056;2023-06-26T12:49:52;2.30;;;0.85;;
47589;SDS011;33316;52.298;9.056;2023-06-26T12:52:20;1.27;;;0.68;;
47589;SDS011;33316;52.298;9.056;2023-06-26T12:54:51;1.88;;;1.05;;
47589;SDS011;33316;52.298;9.056;2023-06-26T12:57:20;2.13;;;0.77;;
47589;SDS011;33316;52.298;9.056;2023-06-26T12:59:46;2.67;;;1.10;;
47589;SDS011;33316;52.298;9.056;2023-06-26T13:02:13;1.65;;;1.02;;
47589;SDS011;33316;52.298;9.056;2023-06-26T13:04:40;1.83;;;0.70;;
47589;SDS011;33316;52.298;9.056;2023-06-26T13:07:09;1.42;;;0.70;;
47589;SDS011;33316;52.298;9.056;2023-06-26T13:09:36;1.40;;;0.73;;
47589;SDS011;33316;52.298;9.056;2023-06-26T13:12:04;2.67;;;1.00;;
47589;SDS011;33316;52.298;9.056;2023-06-26T13:14:33;6.00;;;0.98;;
47589;SDS011;33316;52.298;9.056;2023-06-26T13:17:00;2.13;;;0.80;;
47589;SDS011;33316;52.298;9.056;2023-06-26T13:19:27;1.63;;;1.00;;
47589;SDS011;33316;52.298;9.056;2023-06-26T13:21:54;1.40;;;0.82;;
47589;SDS011;33316;52.298;9.056;2023-06-26T13:24:20;1.77;;;0.90;;
47589;SDS011;33316;52.298;9.056;2023-06-26T13:26:47;1.02;;;0.68;;
47589;SDS011;33316;52.298;9.056;2023-06-26T13:29:14;1.25;;;0.75;;
47589;SDS011;33316;52.298;9.056;2023-06-26T13:31:42;2.45;;;0.70;;
47589;SDS011;33316;52.298;9.056;2023-06-26T13:34:09;2.17;;;0.73;;
47589;SDS011;33316;52.298;9.056;2023-06-26T13:36:46;1.35;;;0.80;;
47589;SDS011;33316;52.298;9.056;2023-06-26T13:39:13;1.38;;;0.70;;
47589;SDS011;33316;52.298;9.056;2023-06-26T13:41:40;2.30;;;0.90;;
47589;SDS011;33316;52.298;9.056;2023-06-26T13:44:06;2.05;;;0.90;;
47589;SDS011;33316;52.298;9.056;2023-06-26T13:46:33;1.60;;;1.00;;
47589;SDS011;33316;52.298;9.056;2023-06-26T13:49:01;1.75;;;0.90;;
47589;SDS011;33316;52.298;9.056;2023-06-26T13:51:28;1.10;;;0.70;;
47589;SDS011;33316;52.298;9.056;2023-06-26T13:53:54;1.58;;;0.75;;
47589;SDS011;33316;52.298;9.056;2023-06-26T13:56:25;0.77;;;0.70;;
47589;SDS011;33316;52.298;9.056;2023-06-26T13:58:51;3.33;;;0.90;;
47589;SDS011;33316;52.298;9.056;2023-06-26T14:01:19;2.40;;;1.08;;
47589;SDS011;33316;52.298;9.056;2023-06-26T14:03:46;1.73;;;0.70;;
47589;SDS011;33316;52.298;9.056;2023-06-26T14:06:14;1.90;;;0.90;;
47589;SDS011;33316;52.298;9.056;2023-06-26T14:08:40;2.72;;;0.70;;
47589;SDS011;33316;52.298;9.056;2023-06-26T14:11:07;1.70;;;1.02;;
47589;SDS011;33316;52.298;9.056;2023-06-26T14:13:34;1.73;;;0.90;;
47589;SDS011;33316;52.298;9.056;2023-06-26T14:16:01;1.52;;;0.70;;
47589;SDS011;33316;52.298;9.056;2023-06-26T14:18:27;1.42;;;0.60;;
47589;SDS011;33316;52.298;9.056;2023-06-26T14:20:54;1.33;;;0.90;;
47589;SDS011;33316;52.298;9.056;2023-06-26T14:23:23;4.18;;;1.30;;
47589;SDS011;33316;52.298;9.056;2023-06-26T14:25:49;1.42;;;1.00;;
47589;SDS011;33316;52.298;9.056;2023-06-26T14:28:16;3.92;;;1.08;;
47589;SDS011;33316;52.298;9.056;2023-06-26T14:30:43;2.25;;;0.90;;
47589;SDS011;33316;52.298;9.056;2023-06-26T14:33:09;1.27;;;0.60;;
47589;SDS011;33316;52.298;9.056;2023-06-26T14:35:36;1.67;;;0.82;;
47589;SDS011;33316;52.298;9.056;2023-06-26T14:38:03;2.95;;;0.95;;
47589;SDS011;33316;52.298;9.056;2023-06-26T14:40:31;2.17;;;1.00;;
47589;SDS011;33316;52.298;9.056;2023-06-26T14:42:57;1.08;;;0.75;;
47589;SDS011;33316;52.298;9.056;2023-06-26T14:45:24;2.70;;;0.98;;
47589;SDS011;33316;52.298;9.056;2023-06-26T14:47:51;2.33;;;0.60;;
47589;SDS011;33316;52.298;9.056;2023-06-26T14:50:17;1.85;;;0.75;;
47589;SDS011;33316;52.298;9.056;2023-06-26T14:52:44;2.03;;;0.98;;